Time;durP1;ratioP1;P1;durP2;ratioP2;P2;SDS_P1;SDS_P2;PMS_P1;PMS_P2;Temp;Humidity;BMP_temperature;BMP_pressure;BME280_temperature;BME280_humidity;BME280_pressure;Samples;Min_cycle;Max_cycle;Signal;HPM_P1;HPM_P2
2020/12/24 07:24:10;;;;;;;16.83;10.60;;;;;;;1.02;83.68;100338.19;1744564;78;21127;-93
2020/12/24 07:27:07;;;;;;;16.63;10.67;;;;;;;1.10;83.79;100335.78;1796438;79;23136;-92
2020/12/24 07:30:18;;;;;;;18.73;11.83;;;;;;;1.07;83.68;100338.65;1816365;77;21267;-89
2020/12/24 07:32:57;;;;;;;16.83;10.43;;;;;;;0.99;83.98;100338.46;1806075;78;21144;-86
2020/12/24 07:35:27;;;;;;;17.20;10.63;;;;;;;1.10;83.79;100335.30;1806466;77;21088;-87
2020/12/24 07:38:03;;;;;;;16.80;9.70;;;;;;;1.20;83.48;100324.85;1794843;78;21483;-88
2020/12/24 07:40:33;;;;;;;16.43;10.47;;;;;;;1.13;83.48;100334.20;1794764;78;21219;-87
2020/12/24 07:46:07;;;;;;;17.50;10.97;;;;;;;1.26;83.31;100330.93;1793650;78;23087;-88
2020/12/24 07:48:35;;;;;;;12.83;8.47;;;;;;;1.16;83.32;100337.89;1724462;82;21346;-86
2020/12/24 07:51:08;;;;;;;12.70;8.77;;;;;;;1.11;83.61;100334.34;1717437;81;21278;-86
2020/12/24 07:53:38;;;;;;;13.63;9.77;;;;;;;1.21;83.37;100329.16;1734220;81;21195;-87
2020/12/24 07:56:11;;;;;;;14.70;9.47;;;;;;;1.20;83.40;100330.59;1735033;81;21179;-87
2020/12/24 07:58:57;;;;;;;15.27;10.03;;;;;;;1.07;83.68;100331.59;1721088;82;21627;-88
2020/12/24 08:01:31;;;;;;;17.93;11.43;;;;;;;1.10;83.86;100313.47;1751348;80;23017;-86
2020/12/24 08:04:03;;;;;;;16.27;10.53;;;;;;;1.09;83.78;100326.23;1749430;80;21179;-87
2020/12/24 08:06:31;;;;;;;16.13;10.47;;;;;;;1.13;83.68;100332.88;1728562;80;21251;-88
2020/12/24 08:09:14;;;;;;;16.93;11.10;;;;;;;1.13;83.82;100342.07;1736076;81;22111;-84
2020/12/24 08:11:59;;;;;;;20.07;11.27;;;;;;;1.05;83.97;100334.01;1726499;81;21182;-84
2020/12/24 08:14:29;;;;;;;14.63;9.33;;;;;;;1.04;84.08;100329.73;1720437;81;21193;-86
2020/12/24 08:17:20;;;;;;;22.10;11.87;;;;;;;1.05;83.88;100323.51;1724680;81;21679;-88
2020/12/24 08:19:58;;;;;;;15.83;10.07;;;;;;;1.08;83.84;100335.91;1722824;81;21333;-88
2020/12/24 08:22:56;;;;;;;;;;;;;;;;;;;;;
2020/12/24 08:29:42;;;;;;;21.50;11.70;;;;;;;1.27;83.30;100322.56;1810015;77;24745;-89
2020/12/24 08:32:14;;;;;;;21.40;12.27;;;;;;;1.23;83.30;100329.03;1804863;77;21892;-88
2020/12/24 08:34:44;;;;;;;17.07;10.40;;;;;;;1.14;83.36;100336.70;1801261;79;21182;-88
2020/12/24 08:37:11;;;;;;;18.50;12.03;;;;;;;1.17;83.16;100326.44;1760849;80;21106;-86
2020/12/24 08:39:38;;;;;;;21.23;12.40;;;;;;;1.29;82.83;100329.34;1736003;79;21201;-87
2020/12/24 08:42:16;;;;;;;21.73;12.43;;;;;;;1.26;82.73;100324.36;1801177;79;21226;-87
2020/12/24 08:44:56;;;;;;;19.87;11.60;;;;;;;1.19;82.82;100327.14;1823546;77;22583;-88
2020/12/24 08:47:25;;;;;;;12.43;8.73;;;;;;;1.22;82.74;100312.42;1827076;78;21430;-87
2020/12/24 08:49:53;;;;;;;16.23;10.50;;;;;;;1.28;82.27;100323.75;1824750;77;21166;-88
2020/12/24 08:52:22;;;;;;;14.27;9.90;;;;;;;1.24;82.07;100314.92;1815592;79;21140;-85
2020/12/24 08:54:59;;;;;;;13.00;9.20;;;;;;;1.12;82.27;100306.30;1810362;78;21187;-88
2020/12/24 08:57:33;;;;;;;11.00;8.90;;;;;;;1.16;82.12;100309.01;1821917;77;21108;-88
2020/12/24 09:00:06;;;;;;;14.60;9.37;;;;;;;1.17;82.11;100296.25;1800503;79;21178;-87
2020/12/24 09:02:37;;;;;;;15.10;10.27;;;;;;;1.06;82.37;100289.75;1807580;79;21199;-88
2020/12/24 09:05:06;;;;;;;15.13;11.53;;;;;;;1.15;82.22;100288.98;1787033;79;21184;-87
2020/12/24 09:07:44;;;;;;;16.37;12.40;;;;;;;1.24;82.08;100284.73;1797926;79;21211;-88
2020/12/24 09:10:27;;;;;;;12.33;10.07;;;;;;;1.20;82.10;100288.09;1816216;78;21168;-88
2020/12/24 09:13:00;;;;;;;15.07;10.87;;;;;;;1.20;82.14;100292.03;1801845;79;21161;-88
2020/12/24 09:15:28;;;;;;;11.77;8.87;;;;;;;1.23;81.47;100292.27;1784988;78;21112;-88
2020/12/24 09:17:57;;;;;;;12.77;8.93;;;;;;;1.20;81.39;100267.09;1813197;78;21128;-87
2020/12/24 09:20:29;;;;;;;10.07;8.07;;;;;;;1.10;81.74;100270.15;1811812;77;21205;-87
2020/12/24 09:22:58;;;;;;;9.83;8.27;;;;;;;1.08;81.69;100285.20;1805685;78;21268;-86
2020/12/24 09:25:43;;;;;;;11.43;8.53;;;;;;;1.17;81.47;100275.25;1802451;78;21310;-87
2020/12/24 09:28:24;;;;;;;10.60;8.37;;;;;;;1.14;81.21;100275.49;1752404;79;21182;-86
2020/12/24 09:30:53;;;;;;;11.77;10.17;;;;;;;1.05;81.64;100271.83;1794759;79;21229;-85
2020/12/24 09:33:25;;;;;;;11.73;10.03;;;;;;;1.14;81.63;100266.30;1780369;78;21182;-89
2020/12/24 09:35:52;;;;;;;11.60;9.93;;;;;;;1.23;81.31;100269.47;1824804;77;21068;-88
2020/12/24 09:38:23;;;;;;;13.03;10.17;;;;;;;1.20;81.40;100276.28;1800947;78;21306;-87
2020/12/24 09:41:00;;;;;;;14.00;10.17;;;;;;;1.14;81.53;100266.30;1803984;78;21278;-92
2020/12/24 09:44:16;;;;;;;11.25;9.85;;;;;;;1.25;81.34;100254.41;1767928;80;21207;-93
2020/12/24 09:47:28;;;;;;;13.90;11.13;;;;;;;1.25;81.13;100260.98;1794552;79;21297;-93
2020/12/24 09:50:40;;;;;;;14.63;10.20;;;;;;;1.16;81.52;100257.81;1782920;78;21180;-93
2020/12/24 09:54:01;;;;;;;10.87;8.37;;;;;;;1.22;81.24;100242.02;1788677;78;21136;-92
2020/12/24 09:57:08;;;;;;;11.57;9.30;;;;;;;1.23;80.87;100243.70;1803719;77;21117;-93
2020/12/24 10:00:16;;;;;;;12.77;9.87;;;;;;;1.21;81.08;100228.56;1777195;78;21278;-93
2020/12/24 10:02:59;;;;;;;11.77;9.17;;;;;;;1.14;81.39;100227.75;1799770;78;21271;-93
2020/12/24 10:05:28;;;;;;;11.03;9.83;;;;;;;1.25;81.15;100226.02;1799688;76;21061;-92
2020/12/24 10:08:02;;;;;;;10.87;9.43;;;;;;;1.27;80.90;100219.66;1762072;79;21272;-89
2020/12/24 10:10:56;;;;;;;9.95;8.35;;;;;;;1.18;81.04;100215.19;1787212;79;21113;-91
2020/12/24 10:13:26;;;;;;;10.27;8.63;;;;;;;1.21;80.98;100214.94;1806811;78;21305;-94
2020/12/24 10:16:04;;;;;;;10.60;9.07;;;;;;;0.97;80.82;100160.11;1800102;79;21160;-93
2020/12/24 10:18:39;;;;;;;11.97;9.37;;;;;;;1.31;80.86;100196.11;1748436;79;21714;-92
2020/12/24 10:21:29;;;;;;;10.53;9.43;;;;;;;1.25;80.99;100195.33;1770509;79;21540;-92
2020/12/24 10:24:02;;;;;;;8.73;7.60;;;;;;;1.32;81.03;100191.71;1799660;79;21117;-92
2020/12/24 10:26:35;;;;;;;11.37;9.93;;;;;;;1.42;80.70;100186.00;1778390;78;21161;-91
2020/12/24 10:29:05;;;;;;;13.03;10.77;;;;;;;1.37;80.67;100180.30;1803838;78;21311;-95
2020/12/24 10:31:42;;;;;;;12.60;9.50;;;;;;;1.29;81.03;100171.78;1804022;79;21185;-91
2020/12/24 10:34:12;;;;;;;14.27;10.63;;;;;;;1.31;81.05;100180.35;1804377;78;21169;-95
2020/12/24 10:36:51;;;;;;;17.30;11.47;;;;;;;1.39;80.84;100177.55;1777995;79;21133;-91
2020/12/24 10:39:41;;;;;;;10.50;8.50;;;;;;;1.35;80.94;100169.92;1777022;79;21121;-90
2020/12/24 10:42:17;;;;;;;11.73;9.97;;;;;;;1.24;81.37;100167.89;1792142;77;21128;-90
2020/12/24 10:45:05;;;;;;;;;;;;;;;1.10;81.37;100131.84;1757567;79;21216;-91
2020/12/24 10:47:34;;;;;;;16.07;9.63;;;;;;;1.33;81.16;100158.73;1815552;78;20248;-92
2020/12/24 10:50:05;;;;;;;11.83;9.10;;;;;;;1.22;81.43;100161.45;1748227;80;21103;-92
2020/12/24 10:53:17;;;;;;;12.20;9.57;;;;;;;1.22;81.55;100159.31;1752031;80;21254;-94
2020/12/24 10:55:53;;;;;;;11.00;7.83;;;;;;;1.30;81.38;100156.39;1797610;78;21195;-90
2020/12/24 10:58:50;;;;;;;12.80;9.98;;;;;;;1.21;81.53;100135.35;1775790;79;21140;-93
2020/12/24 11:01:29;;;;;;;11.13;8.60;;;;;;;1.27;81.59;100144.83;1777190;79;21199;-92
2020/12/24 11:04:37;;;;;;;12.30;9.13;;;;;;;1.29;81.47;100141.58;1770585;79;21109;-93
2020/12/24 11:07:49;;;;;;;13.22;10.50;;;;;;;1.24;81.63;100136.38;1777662;78;21144;-91
2020/12/24 11:10:38;;;;;;;15.57;11.23;;;;;;;1.13;82.07;100128.11;1782978;79;21286;-94
2020/12/24 11:13:07;;;;;;;23.83;14.97;;;;;;;1.21;81.93;100132.23;1794223;79;21180;-92
2020/12/24 11:15:53;;;;;;;16.03;11.43;;;;;;;1.26;81.84;100131.36;1763149;78;21326;-92
2020/12/24 11:18:26;;;;;;;17.47;11.83;;;;;;;1.23;81.96;100126.36;1792639;78;21242;-93
2020/12/24 11:21:11;;;;;;;18.50;13.37;;;;;;;1.19;82.08;100115.78;1789542;79;21121;-89
2020/12/24 11:23:44;;;;;;;21.17;11.87;;;;;;;1.28;81.91;100112.36;1805961;78;21133;-92
2020/12/24 11:26:27;;;;;;;15.93;11.13;;;;;;;1.38;81.50;100119.44;1795442;78;21669;-89
2020/12/24 11:29:09;;;;;;;19.33;11.47;;;;;;;1.36;81.47;100117.77;1764385;77;21392;-91
2020/12/24 11:31:40;;;;;;;20.13;13.33;;;;;;;1.22;81.66;100107.63;1758085;79;21120;-90
2020/12/24 11:34:48;;;;;;;26.07;14.20;;;;;;;1.20;81.76;100109.55;1750545;78;21097;-93
2020/12/24 11:37:51;;;;;;;23.70;15.63;;;;;;;1.30;81.55;100094.67;1815425;77;22693;-89
2020/12/24 12:03:28;;;;;;;;;;;;;;;;;;;;;
2020/12/24 12:10:21;;;;;;;27.67;20.93;;;;;;;0.92;82.32;100051.59;1551859;89;22041;-93
2020/12/24 12:17:00;;;;;;;;;;;;;;;;;;;;;
2020/12/24 12:39:44;;;;;;;27.33;17.57;;;;;;;0.93;82.31;100013.87;1604868;84;21209;-92
2020/12/24 12:43:12;;;;;;;29.80;19.23;;;;;;;0.86;82.25;100015.38;1644141;83;21121;-92
2020/12/24 12:46:02;;;;;;;26.27;19.10;;;;;;;0.88;82.38;100013.94;1649357;81;21143;-91
2020/12/24 12:49:05;;;;;;;25.97;18.07;;;;;;;0.97;82.16;100011.82;1639825;84;21244;-94
2020/12/24 12:56:01;;;;;;;;;;;;;;;;;;;;;
2020/12/24 12:58:55;;;;;;;30.70;18.33;;;;;;;1.04;82.12;99997.20;1748219;77;21244;-94
2020/12/24 13:01:58;;;;;;;28.45;17.48;;;;;;;0.87;82.23;100013.11;1708598;79;21256;-92
2020/12/24 13:07:57;;;;;;;27.47;16.00;;;;;;;0.99;82.02;99998.56;1690665;83;21298;-92
2020/12/24 13:11:11;;;;;;;24.40;16.57;;;;;;;0.99;81.87;99996.77;1691479;83;21663;-94
2020/12/24 13:13:43;;;;;;;25.27;17.23;;;;;;;1.01;81.88;99994.83;1699657;78;21219;-91
2020/12/24 13:16:29;;;;;;;23.10;15.37;;;;;;;-0.12;82.05;99814.13;1808829;78;21212;-93
2020/12/24 13:19:26;;;;;;;19.17;12.77;;;;;;;0.97;82.07;99977.20;1809151;78;21172;-92
2020/12/24 13:22:15;;;;;;;24.37;16.13;;;;;;;1.04;81.72;99995.89;1764020;78;21238;-92
2020/12/24 13:25:15;;;;;;;;;;;;;;;;;;;;;
2020/12/24 13:46:34;;;;;;;;;;;;;;;;;;;;;
2020/12/24 13:49:25;;;;;;;20.50;13.07;;;;;;;0.90;82.19;99960.34;1705337;82;28488;-93
2020/12/24 13:52:48;;;;;;;;;;;;;;;;;;;;;
2020/12/24 13:55:45;;;;;;;;;;;;;;;;;;;;;
2020/12/24 13:58:52;;;;;;;16.63;11.07;;;;;;;0.87;81.85;99948.82;1651765;86;21299;-94
2020/12/24 14:05:28;;;;;;;;;;;;;;;;;;;;;
2020/12/24 14:18:44;;;;;;;21.23;15.10;;;;;;;0.78;82.21;99933.89;1556910;88;21271;-95
2020/12/24 14:22:21;;;;;;;;;;;;;;;;;;;;;
2020/12/24 14:25:44;;;;;;;23.90;15.07;;;;;;;0.84;82.01;99932.52;1563068;90;21331;-94
2020/12/24 14:43:41;;;;;;;;;;;;;;;;;;;;;
2020/12/24 14:47:14;;;;;;;;;;;;;;;;;;;;;
2020/12/24 14:50:27;;;;;;;21.97;13.40;;;;;;;1.51;79.39;99897.57;1569345;89;21220;-90
2020/12/24 15:04:37;;;;;;;19.03;12.27;;;;;;;1.00;81.66;99857.17;1767232;80;28301;-93
2020/12/24 15:13:08;;;;;;;;;;;;;;;;;;;;;
2020/12/24 15:15:58;;;;;;;16.93;12.18;;;;;;;0.89;82.00;99851.11;1801810;78;21112;-93
2020/12/24 15:19:15;;;;;;;18.63;11.77;;;;;;;0.85;82.44;99852.81;1800381;78;21151;-92
2020/12/24 15:33:28;;;;;;;;;;;;;;;;;;;;;
2020/12/24 15:47:08;;;;;;;;;;;;;;;;;;;;;
2020/12/24 16:03:13;;;;;;;13.77;10.20;;;;;;;0.87;83.02;99812.87;1803270;77;22599;-93
2020/12/24 16:05:47;;;;;;;12.67;8.87;;;;;;;0.92;82.87;99811.48;1777440;80;21717;-93
2020/12/24 16:08:19;;;;;;;14.40;9.43;;;;;;;0.97;82.77;99805.31;1764928;80;21197;-91
2020/12/24 16:10:48;;;;;;;12.23;8.10;;;;;;;0.89;82.94;99799.94;1794635;80;21195;-91
2020/12/24 16:13:15;;;;;;;13.67;8.60;;;;;;;0.91;82.89;99798.00;1779178;78;21173;-93
2020/12/24 16:15:44;;;;;;;15.93;9.97;;;;;;;0.99;82.56;99799.92;1756698;80;21168;-93
2020/12/24 16:18:12;;;;;;;15.50;10.10;;;;;;;1.07;82.49;99796.59;1787811;79;21192;-91
2020/12/24 16:20:39;;;;;;;12.30;7.80;;;;;;;1.01;82.54;99794.55;1793010;78;21168;-91
2020/12/24 16:23:10;;;;;;;10.73;8.80;;;;;;;1.00;82.81;99788.94;1786719;79;21200;-91
2020/12/24 16:25:45;;;;;;;12.53;8.87;;;;;;;1.00;82.72;99791.10;1785787;79;21185;-90
2020/12/24 16:28:22;;;;;;;9.80;7.43;;;;;;;1.09;82.28;99802.53;1744187;79;23139;-88
2020/12/24 16:30:51;;;;;;;11.33;7.30;;;;;;;1.02;82.34;99799.66;1728766;81;21207;-91
2020/12/24 16:33:23;;;;;;;10.23;6.30;;;;;;;1.00;82.48;99794.19;1725137;81;21188;-89
2020/12/24 16:36:00;;;;;;;13.37;7.23;;;;;;;1.06;82.40;99784.46;1689198;83;21089;-91
2020/12/24 16:39:03;;;;;;;10.70;7.70;;;;;;;1.17;82.31;99784.30;1839591;76;24159;-91
2020/12/24 16:41:42;;;;;;;7.40;6.20;;;;;;;1.10;82.33;99787.14;1811535;78;21207;-90
2020/12/24 16:44:13;;;;;;;10.33;7.90;;;;;;;0.94;82.55;99764.93;1793537;78;21177;-90
2020/12/24 16:46:40;;;;;;;10.00;6.87;;;;;;;1.08;82.50;99782.52;1792079;78;21226;-88
2020/12/24 16:49:10;;;;;;;11.53;7.23;;;;;;;1.13;82.28;99788.16;1731201;81;21187;-92
2020/12/24 16:51:50;;;;;;;10.33;7.97;;;;;;;1.13;82.24;99768.47;1754691;81;21209;-89
2020/12/24 16:54:22;;;;;;;10.07;6.17;;;;;;;1.15;82.32;99776.56;1717028;81;21425;-88
2020/12/24 16:57:01;;;;;;;9.87;7.20;;;;;;;1.17;82.31;99773.80;1715482;81;21325;-89
2020/12/24 16:59:33;;;;;;;8.57;6.33;;;;;;;1.09;82.50;99771.03;1736526;81;21595;-92
2020/12/24 17:02:07;;;;;;;8.13;6.40;;;;;;;1.12;82.58;99762.89;1734137;80;21788;-90
2020/12/24 17:04:35;;;;;;;9.87;7.73;;;;;;;1.20;82.38;99761.69;1692218;82;21274;-90
2020/12/24 17:07:03;;;;;;;9.43;6.37;;;;;;;1.16;82.33;99764.26;1614827;84;21178;-88
2020/12/24 17:09:34;;;;;;;7.93;6.77;;;;;;;1.15;82.47;99757.37;1766802;80;21201;-88
2020/12/24 17:12:02;;;;;;;9.00;6.47;;;;;;;1.18;82.52;99750.50;1729534;80;21262;-91
2020/12/24 17:14:34;;;;;;;7.20;6.07;;;;;;;1.22;82.32;99754.98;1752709;80;21627;-90
2020/12/24 17:17:03;;;;;;;8.70;6.23;;;;;;;1.20;82.35;99749.87;1751597;79;21279;-91
2020/12/24 17:19:31;;;;;;;8.43;6.27;;;;;;;1.19;82.51;99753.95;1751671;80;21195;-90
2020/12/24 17:21:59;;;;;;;11.70;6.43;;;;;;;1.17;82.60;99737.05;1751602;80;21212;-94
2020/12/24 17:24:26;;;;;;;7.43;5.87;;;;;;;1.27;82.33;99744.89;1764365;79;21314;-90
2020/12/24 17:27:00;;;;;;;8.97;5.57;;;;;;;1.22;82.47;99737.92;1744099;79;21176;-88
2020/12/24 17:29:29;;;;;;;8.93;6.40;;;;;;;1.23;82.53;99731.72;1746578;79;21214;-89
2020/12/24 17:31:56;;;;;;;11.13;6.20;;;;;;;1.30;82.29;99727.52;1752373;79;21270;-90
2020/12/24 17:34:26;;;;;;;6.60;5.57;;;;;;;1.34;82.32;99726.29;1750212;78;21160;-91
2020/12/24 17:36:58;;;;;;;7.73;6.27;;;;;;;1.30;82.31;99730.15;1708653;79;21135;-90
2020/12/24 17:39:40;;;;;;;7.75;7.05;;;;;;;1.32;82.59;99711.98;1799217;77;28027;-90
2020/12/24 17:45:03;;;;;;;8.60;6.40;;;;;;;1.61;81.65;99714.14;1745296;79;21237;-89
2020/12/24 17:47:41;;;;;;;7.17;5.40;;;;;;;1.56;81.55;99709.31;1792404;78;21267;-92
2020/12/24 17:50:12;;;;;;;8.70;6.13;;;;;;;1.42;82.00;99715.06;1741839;81;21148;-93
2020/12/24 17:52:45;;;;;;;7.00;5.83;;;;;;;1.48;82.10;99700.03;1791922;79;21217;-90
2020/12/24 17:55:13;;;;;;;6.20;5.57;;;;;;;1.51;82.02;99705.01;1789830;80;21237;-90
2020/12/24 17:57:48;;;;;;;6.63;5.93;;;;;;;1.47;82.12;99707.09;1794867;79;21167;-92
2020/12/24 18:00:29;;;;;;;10.67;6.90;;;;;;;1.34;82.39;99706.10;1790897;79;21148;-91
2020/12/24 18:03:08;;;;;;;7.07;6.23;;;;;;;1.42;82.49;99691.42;1788946;79;21147;-91
2020/12/24 18:05:39;;;;;;;6.80;5.20;;;;;;;1.50;82.50;99697.59;1746593;79;21089;-94
2020/12/24 18:08:08;;;;;;;8.73;6.57;;;;;;;1.44;82.58;99692.11;1695064;83;21195;-92
2020/12/24 18:10:54;;;;;;;8.10;5.17;;;;;;;1.45;82.69;99681.92;1720895;82;21536;-90
2020/12/24 18:13:33;;;;;;;7.73;5.27;;;;;;;1.54;82.48;99684.53;1717968;83;21302;-92
2020/12/24 18:16:12;;;;;;;8.03;5.73;;;;;;;1.57;82.30;99680.77;1722787;82;21160;-92
2020/12/24 18:19:38;;;;;;;6.43;5.23;;;;;;;1.48;82.55;99677.21;1689839;82;21419;-91
2020/12/24 18:22:17;;;;;;;8.13;5.53;;;;;;;1.56;82.33;99671.23;1698962;83;21237;-92
2020/12/24 18:36:03;;;;;;;6.27;4.90;;;;;;;1.50;82.79;99637.18;1763061;78;28012;-91
2020/12/24 18:49:53;;;;;;;3.60;3.30;;;;;;;1.51;83.33;99633.59;1791658;78;22383;-93
2020/12/24 19:06:20;;;;;;;4.57;4.17;;;;;;;1.63;83.59;99605.31;1780737;76;28064;-83
2020/12/24 19:08:51;;;;;;;9.00;3.93;;;;;;;1.62;83.37;99610.70;1696525;81;21581;-82
2020/12/24 19:11:32;;;;;;;5.00;4.50;;;;;;;1.54;83.57;99599.16;1693464;82;21172;-94
2020/12/24 20:06:55;;;;;;;5.03;4.72;;;;;;;1.93;82.97;99521.33;1740110;77;28488;-88
2020/12/24 20:09:28;;;;;;;3.57;3.27;;;;;;;2.07;82.58;99521.75;1671631;84;21387;-87
2020/12/24 20:12:01;;;;;;;4.70;4.20;;;;;;;2.18;81.98;99513.62;1636523;86;21181;-87
2020/12/24 20:14:30;;;;;;;4.63;4.23;;;;;;;2.21;81.72;99513.31;1687832;83;21212;-88
2020/12/24 20:17:05;;;;;;;3.00;2.80;;;;;;;2.25;81.68;99508.08;1693968;83;21215;-90
2020/12/24 20:19:47;;;;;;;5.95;4.55;;;;;;;2.23;81.67;99502.16;1693152;83;21164;-88
2020/12/24 20:22:16;;;;;;;5.40;4.53;;;;;;;2.10;81.96;99493.85;1696285;83;21208;-86
2020/12/24 20:24:44;;;;;;;3.67;3.37;;;;;;;2.13;82.05;99493.06;1696182;83;21224;-93
2020/12/24 20:27:48;;;;;;;;;;;;;;;;;;;;;
2020/12/24 20:30:59;;;;;;;;;;;;;;;;;;;;;
2020/12/24 20:33:41;;;;;;;3.33;3.03;;;;;;;2.17;82.05;99491.41;1811272;77;22887;-91
2020/12/24 20:36:20;;;;;;;3.13;2.83;;;;;;;2.10;82.10;99497.30;1722480;81;21527;-89
2020/12/24 20:39:24;;;;;;;3.20;2.90;;;;;;;2.25;81.88;99480.47;1782025;79;24361;-88
2020/12/24 20:42:15;;;;;;;3.70;3.50;;;;;;;2.17;81.91;99482.22;1851605;76;22901;-91
2020/12/24 20:44:45;;;;;;;3.07;2.87;;;;;;;2.06;82.29;99481.50;1785054;78;21190;-91
2020/12/24 20:47:19;;;;;;;2.87;2.57;;;;;;;2.14;82.23;99480.23;1790244;78;21168;-87
2020/12/24 20:50:04;;;;;;;4.03;3.17;;;;;;;2.20;82.08;99472.71;1792805;76;21205;-92
2020/12/24 21:00:51;;;;;;;3.30;2.97;;;;;;;2.23;82.23;99473.73;1795771;77;21177;-93
2020/12/24 21:12:01;;;;;;;;;;;;;;;;;;;;;
2020/12/24 21:19:35;;;;;;;;;;;;;;;;;;;;;
2020/12/24 21:41:00;;;;;;;1.93;1.83;;;;;;;2.26;82.66;99407.66;1764929;80;21146;-90
